Time;durP1;ratioP1;P1;durP2;ratioP2;P2;SDS_P1;SDS_P2;PMS_P1;PMS_P2;Temp;Humidity;BMP_temperature;BMP_pressure;BME280_temperature;BME280_humidity;BME280_pressure;Samples;Min_cycle;Max_cycle;Signal;HPM_P1;HPM_P2
2022/08/02 00:01:44;;;;;;;5.00;1.70;;;;;;;16.77;77.58;101645.75;5059861;28;20040;-78
2022/08/02 00:04:10;;;;;;;4.40;1.85;;;;;;;16.78;77.53;101647.38;5071707;28;20036;-78
2022/08/02 00:06:36;;;;;;;2.97;1.70;;;;;;;16.74;77.61;101646.94;5054298;28;20032;-77
2022/08/02 00:09:03;;;;;;;3.22;1.88;;;;;;;16.75;77.70;101647.75;5056918;28;20451;-77
2022/08/02 00:11:32;;;;;;;3.15;1.60;;;;;;;16.72;77.46;101642.84;5060016;28;20052;-77
2022/08/02 00:13:57;;;;;;;9.60;1.52;;;;;;;16.55;77.86;101637.72;5061135;28;20027;-78
2022/08/02 00:16:23;;;;;;;4.82;1.92;;;;;;;16.43;78.38;101635.72;5058669;28;20033;-78
2022/08/02 00:18:49;;;;;;;2.08;1.48;;;;;;;16.34;78.78;101634.94;5063665;28;20052;-77
2022/08/02 00:21:15;;;;;;;4.90;1.70;;;;;;;16.37;79.06;101641.63;5060908;28;20055;-78
2022/08/02 00:23:41;;;;;;;4.65;1.83;;;;;;;16.41;78.75;101633.25;5059884;28;20035;-78
2022/08/02 00:26:06;;;;;;;2.50;1.50;;;;;;;16.43;78.65;101627.88;5058783;28;20040;-78
2022/08/02 00:28:32;;;;;;;3.30;1.55;;;;;;;16.40;78.27;101625.56;5056849;28;20495;-77
2022/08/02 00:31:01;;;;;;;3.17;1.63;;;;;;;16.28;78.29;101618.13;5043153;28;20120;-77
2022/08/02 00:33:26;;;;;;;2.65;1.63;;;;;;;16.15;78.86;101618.69;5060578;28;20051;-76
2022/08/02 00:35:52;;;;;;;5.38;1.92;;;;;;;16.04;79.74;101619.09;5056608;28;20511;-78
2022/08/02 00:38:18;;;;;;;3.00;1.70;;;;;;;16.03;79.94;101629.72;5066750;28;20039;-77
2022/08/02 00:40:51;;;;;;;2.22;1.35;;;;;;;16.07;80.12;101629.22;5056475;28;20036;-77
2022/08/02 00:43:17;;;;;;;3.85;1.80;;;;;;;16.15;79.64;101625.75;5055272;28;20103;-78
2022/08/02 00:45:43;;;;;;;4.60;2.20;;;;;;;16.17;79.10;101625.56;5055065;28;20032;-78
2022/08/02 00:48:10;;;;;;;3.95;1.50;;;;;;;16.15;79.21;101631.78;5059549;28;20556;-78
2022/08/02 00:50:37;;;;;;;2.92;1.60;;;;;;;16.11;79.02;101627.88;5061983;28;20060;-76
2022/08/02 00:53:08;;;;;;;6.25;1.67;;;;;;;16.09;79.11;101634.28;5060163;28;20032;-78
2022/08/02 00:55:35;;;;;;;3.45;1.70;;;;;;;16.07;78.98;101634.44;5057329;28;20036;-77
2022/08/02 00:58:00;;;;;;;4.75;1.38;;;;;;;16.10;78.91;101633.28;5059431;28;20059;-78
2022/08/02 01:00:26;;;;;;;2.08;1.23;;;;;;;16.15;78.14;101629.16;5059189;28;20115;-76
2022/08/02 01:02:51;;;;;;;12.15;2.45;;;;;;;16.12;78.74;101631.31;5061571;28;20040;-77
2022/08/02 01:05:17;;;;;;;4.30;1.52;;;;;;;16.14;78.74;101632.78;5052671;28;20036;-79
2022/08/02 01:07:43;;;;;;;5.13;1.75;;;;;;;16.12;78.49;101632.16;5056756;28;20394;-76
2022/08/02 01:10:09;;;;;;;8.90;1.95;;;;;;;16.03;79.04;101630.56;5059535;28;20071;-76
2022/08/02 01:12:35;;;;;;;3.70;1.40;;;;;;;15.98;79.39;101629.44;5055813;28;20037;-79
2022/08/02 01:15:05;;;;;;;3.90;1.85;;;;;;;15.98;79.17;101630.25;5062781;28;20039;-78
2022/08/02 01:17:37;;;;;;;2.70;1.75;;;;;;;16.02;79.05;101622.88;5055156;28;20036;-77
2022/08/02 01:20:06;;;;;;;3.28;1.60;;;;;;;16.05;78.68;101625.97;5056931;28;20039;-77
2022/08/02 01:22:58;;;;;;;3.78;1.38;;;;;;;16.06;78.61;101624.16;5057376;28;20883;-76
2022/08/02 01:25:27;;;;;;;3.30;1.48;;;;;;;16.04;78.43;101623.50;5055061;28;20036;-77
2022/08/02 01:28:20;;;;;;;4.57;1.50;;;;;;;16.04;78.52;101606.00;5060270;28;20478;-79
2022/08/02 01:30:49;;;;;;;6.00;1.80;;;;;;;15.95;78.86;101605.25;5061282;28;20486;-77
2022/08/02 01:33:18;;;;;;;2.60;1.38;;;;;;;15.85;79.28;101602.03;5058788;28;20463;-78
2022/08/02 01:35:52;;;;;;;3.15;1.20;;;;;;;15.81;79.51;101599.94;5060244;28;20032;-76
2022/08/02 01:38:42;;;;;;;3.40;1.70;;;;;;;15.78;79.86;101601.06;5050129;28;20367;-77
2022/08/02 01:41:13;;;;;;;2.95;1.30;;;;;;;15.76;80.12;101605.66;5062247;28;20036;-76
2022/08/02 01:43:42;;;;;;;5.05;1.70;;;;;;;15.77;80.13;101600.28;5058679;28;20046;-76
2022/08/02 01:46:11;;;;;;;4.10;1.67;;;;;;;15.75;79.99;101596.22;5042671;28;20553;-77
2022/08/02 01:48:40;;;;;;;3.95;1.52;;;;;;;15.68;80.29;101603.88;5054821;28;20105;-77
2022/08/02 01:51:17;;;;;;;2.40;1.40;;;;;;;15.64;80.44;101594.75;5057961;28;20036;-77
2022/08/02 01:53:48;;;;;;;6.22;1.75;;;;;;;15.67;80.39;101597.03;5059263;28;20070;-76
2022/08/02 01:56:16;;;;;;;2.92;1.63;;;;;;;15.72;80.10;101594.69;5060561;28;20039;-76
2022/08/02 01:58:43;;;;;;;2.72;1.30;;;;;;;15.75;79.66;101590.97;5058680;28;20405;-77
2022/08/02 02:01:11;;;;;;;4.45;1.73;;;;;;;15.76;79.49;101592.59;5078829;28;20130;-77
2022/08/02 02:03:38;;;;;;;3.53;1.55;;;;;;;15.77;79.20;101597.66;5057458;28;20036;-77
2022/08/02 02:06:06;;;;;;;5.30;1.77;;;;;;;15.77;79.43;101596.84;5056503;28;20044;-78
2022/08/02 02:08:42;;;;;;;2.58;1.42;;;;;;;15.77;79.11;101600.28;5056615;28;20394;-78
2022/08/02 02:11:08;;;;;;;2.70;1.52;;;;;;;15.77;78.87;101597.66;5054790;28;20036;-78
2022/08/02 02:13:36;;;;;;;4.93;1.85;;;;;;;15.75;78.80;101599.63;5056380;28;20485;-77
2022/08/02 02:16:04;;;;;;;2.90;1.80;;;;;;;15.74;78.89;101592.75;5058136;28;20045;-78
2022/08/02 02:18:32;;;;;;;4.18;1.85;;;;;;;15.72;78.69;101579.00;5060240;28;20028;-78
2022/08/02 02:20:58;;;;;;;5.18;1.70;;;;;;;15.69;78.93;101575.91;5054853;28;20032;-77
2022/08/02 02:23:27;;;;;;;5.13;1.77;;;;;;;15.56;79.52;101576.50;5055594;28;20120;-78
2022/08/02 02:25:53;;;;;;;2.65;1.73;;;;;;;15.41;79.95;101584.22;5058883;28;20042;-78
2022/08/02 02:28:28;;;;;;;5.50;2.67;;;;;;;15.27;80.63;101580.50;5058441;28;20401;-76
2022/08/02 02:31:17;;;;;;;3.90;2.28;;;;;;;15.11;81.37;101573.53;5054659;28;20037;-78
2022/08/02 02:33:51;;;;;;;3.80;1.92;;;;;;;14.96;81.69;101573.38;5060214;28;20041;-76
2022/08/02 02:36:18;;;;;;;7.18;2.00;;;;;;;14.91;82.21;101580.91;5057477;28;20395;-76
2022/08/02 02:38:52;;;;;;;5.65;1.88;;;;;;;14.90;82.22;101579.28;5054239;28;20505;-77
2022/08/02 02:41:23;;;;;;;3.55;1.73;;;;;;;14.93;82.33;101578.94;5039478;28;20490;-77
2022/08/02 02:43:52;;;;;;;5.05;1.65;;;;;;;14.92;82.29;101577.31;5061329;28;20502;-77
2022/08/02 02:46:20;;;;;;;4.85;1.58;;;;;;;14.93;82.44;101565.06;5057202;28;20108;-77
2022/08/02 02:48:46;;;;;;;2.03;1.38;;;;;;;14.97;82.01;101561.13;5055961;28;20032;-77
2022/08/02 02:51:13;;;;;;;3.20;1.60;;;;;;;15.02;81.56;101566.69;5058785;28;20342;-77
2022/08/02 02:53:40;;;;;;;5.07;1.50;;;;;;;15.06;81.08;101554.13;5054110;28;20048;-77
2022/08/02 02:56:06;;;;;;;8.32;1.80;;;;;;;14.98;81.11;101554.94;5055728;28;20035;-76
2022/08/02 02:58:32;;;;;;;5.68;2.00;;;;;;;14.84;81.96;101558.22;5057417;28;20043;-76
2022/08/02 03:03:44;;;;;;;4.45;1.77;;;;;;;14.62;83.08;101564.94;5057527;28;20044;-78
2022/08/02 03:06:09;;;;;;;3.53;1.73;;;;;;;14.52;83.55;101567.69;5071914;28;20210;-78
2022/08/02 03:08:35;;;;;;;4.00;1.85;;;;;;;14.41;83.82;101554.00;5054453;28;20032;-77
2022/08/02 03:11:03;;;;;;;4.57;1.92;;;;;;;14.38;84.11;101556.91;5059115;28;20028;-77
2022/08/02 03:13:30;;;;;;;6.90;2.00;;;;;;;14.36;84.17;101551.06;5061191;28;20024;-77
2022/08/02 03:15:57;;;;;;;4.55;1.70;;;;;;;14.31;84.17;101552.50;5062515;28;20065;-78
2022/08/02 03:18:32;;;;;;;6.50;2.03;;;;;;;14.24;84.45;101557.56;5064088;28;20558;-76
2022/08/02 03:21:12;;;;;;;4.97;2.35;;;;;;;14.25;84.59;101561.00;5062403;28;20048;-77
2022/08/02 03:23:40;;;;;;;3.05;1.83;;;;;;;14.25;84.68;101548.75;5060423;28;20083;-77
2022/08/02 03:26:07;;;;;;;3.63;1.85;;;;;;;14.26;84.95;101553.00;5063062;28;20044;-77
2022/08/02 03:28:34;;;;;;;7.18;2.20;;;;;;;14.29;85.02;101546.66;5061917;28;20033;-77
2022/08/02 03:31:00;;;;;;;3.80;2.10;;;;;;;14.25;85.19;101542.75;5059713;28;20029;-77
2022/08/02 03:33:27;;;;;;;5.80;1.83;;;;;;;14.16;85.42;101541.91;5068592;28;20029;-77
2022/08/02 03:35:55;;;;;;;4.97;2.17;;;;;;;14.08;85.76;101542.72;5051885;28;20040;-77
2022/08/02 03:38:24;;;;;;;6.68;2.30;;;;;;;14.04;86.17;101538.78;5059611;28;20121;-77
2022/08/02 03:40:50;;;;;;;4.47;2.03;;;;;;;14.03;86.40;101547.59;5045449;28;20033;-78
2022/08/02 03:43:16;;;;;;;2.42;1.90;;;;;;;14.04;86.33;101541.41;5059276;28;20036;-78
2022/08/02 03:45:47;;;;;;;4.35;2.20;;;;;;;14.05;86.47;101548.22;5055738;28;20021;-77
2022/08/02 03:48:15;;;;;;;4.57;2.25;;;;;;;14.01;86.70;101541.72;5048984;28;20129;-77
2022/08/02 03:50:42;;;;;;;3.10;1.88;;;;;;;14.00;86.77;101551.34;5059681;28;20028;-76
2022/08/02 03:53:08;;;;;;;3.38;1.95;;;;;;;14.06;86.57;101547.28;5060038;28;20037;-77
2022/08/02 03:55:38;;;;;;;6.50;1.92;;;;;;;14.13;86.06;101556.09;5061161;28;20040;-78
2022/08/02 03:58:04;;;;;;;7.07;2.15;;;;;;;14.20;85.47;101545.81;5058050;28;20055;-77
2022/08/02 04:00:30;;;;;;;3.97;2.00;;;;;;;14.24;85.03;101543.69;5057964;28;20494;-78
2022/08/02 04:02:56;;;;;;;3.88;2.05;;;;;;;14.19;84.96;101541.59;5057163;28;20074;-77
2022/08/02 04:05:22;;;;;;;4.47;2.67;;;;;;;14.11;85.23;101549.38;5059353;28;20036;-77
2022/08/02 04:07:49;;;;;;;2.30;1.65;;;;;;;14.02;85.75;101549.38;5061007;28;20032;-78
2022/08/02 04:10:19;;;;;;;3.35;2.08;;;;;;;13.99;86.15;101554.09;5057274;28;20112;-77
2022/08/02 04:12:44;;;;;;;3.13;2.38;;;;;;;13.93;86.58;101555.56;5060627;28;20375;-78
2022/08/02 04:15:14;;;;;;;4.40;2.58;;;;;;;13.89;87.15;101548.22;5062448;28;20036;-77
2022/08/02 04:17:44;;;;;;;4.90;2.47;;;;;;;13.81;87.27;101556.84;5059094;28;20483;-77
2022/08/02 04:20:32;;;;;;;4.82;2.72;;;;;;;13.81;87.62;101562.88;5062609;28;20044;-78
2022/08/02 04:23:03;;;;;;;4.38;2.90;;;;;;;13.81;87.97;101562.06;5057402;28;20374;-77
2022/08/02 04:25:31;;;;;;;5.88;2.75;;;;;;;13.83;88.09;101552.28;5059380;28;20089;-77
2022/08/02 04:27:58;;;;;;;4.72;2.40;;;;;;;13.83;88.07;101557.50;5046564;28;20155;-77
2022/08/02 04:30:24;;;;;;;6.93;2.75;;;;;;;13.83;88.74;101557.50;5060959;28;20119;-78
2022/08/02 04:32:51;;;;;;;5.97;2.95;;;;;;;13.83;88.42;101553.09;5059668;28;20037;-77
2022/08/02 04:35:16;;;;;;;8.15;2.65;;;;;;;13.88;88.49;101551.78;5059686;28;20390;-76
2022/08/02 04:37:43;;;;;;;5.55;2.47;;;;;;;13.91;88.47;101547.06;5057233;28;20024;-76
2022/08/02 04:40:12;;;;;;;4.28;2.60;;;;;;;13.95;88.45;101550.19;5061570;28;20636;-76
2022/08/02 04:42:38;;;;;;;7.50;2.75;;;;;;;13.97;88.93;101549.03;5056214;28;20040;-76
2022/08/02 04:45:08;;;;;;;6.35;2.50;;;;;;;13.98;89.14;101555.91;5059232;28;20440;-76
2022/08/02 04:47:34;;;;;;;7.38;2.50;;;;;;;14.00;89.33;101555.75;5060434;28;20046;-76
2022/08/02 04:49:59;;;;;;;6.82;3.67;;;;;;;14.03;89.53;101560.63;5056396;28;20032;-76
2022/08/02 04:52:25;;;;;;;5.35;2.70;;;;;;;14.08;89.42;101554.94;5058856;28;20430;-76
2022/08/02 04:54:52;;;;;;;6.63;3.28;;;;;;;14.14;89.34;101564.72;5058461;28;20036;-76
2022/08/02 05:00:04;;;;;;;5.55;3.00;;;;;;;14.27;89.71;101559.84;5060747;28;20043;-76
2022/08/02 05:02:30;;;;;;;5.32;3.10;;;;;;;14.31;90.11;101560.34;5057713;28;20086;-76
2022/08/02 05:04:55;;;;;;;8.32;3.42;;;;;;;14.34;90.80;101552.19;5053773;28;20025;-76
2022/08/02 05:07:21;;;;;;;6.72;3.38;;;;;;;14.37;91.55;101555.31;5054002;28;20183;-76
2022/08/02 05:09:49;;;;;;;7.47;3.38;;;;;;;14.42;91.90;101552.19;5053249;28;20068;-76
2022/08/02 05:12:15;;;;;;;5.40;3.42;;;;;;;14.51;92.10;101553.81;5046655;28;20056;-76
2022/08/02 05:14:40;;;;;;;7.28;4.18;;;;;;;14.60;92.36;101554.69;5062743;28;20075;-76
2022/08/02 05:17:06;;;;;;;8.27;3.92;;;;;;;14.71;92.38;101558.72;5057707;28;20036;-76
2022/08/02 05:19:31;;;;;;;9.48;4.10;;;;;;;14.83;92.75;101556.63;5058587;28;20115;-75
2022/08/02 05:21:57;;;;;;;6.95;3.55;;;;;;;14.92;92.87;101553.00;5058233;28;20025;-76
2022/08/02 05:24:22;;;;;;;10.77;4.50;;;;;;;15.01;93.01;101546.75;5059876;28;20058;-76
2022/08/02 05:26:49;;;;;;;12.98;5.07;;;;;;;15.08;93.06;101546.94;5060964;28;20134;-75
2022/08/02 05:29:16;;;;;;;7.00;4.10;;;;;;;15.14;93.12;101541.88;5060840;28;20045;-76
2022/08/02 05:31:41;;;;;;;9.48;5.40;;;;;;;15.17;93.04;101557.19;5055289;28;20526;-76
2022/08/02 05:34:07;;;;;;;9.45;5.30;;;;;;;15.24;93.13;101561.72;5058074;28;20752;-76
2022/08/02 05:36:33;;;;;;;9.15;4.38;;;;;;;15.28;92.76;101547.38;5055956;28;20039;-75
2022/08/02 05:38:58;;;;;;;11.75;4.30;;;;;;;15.30;92.75;101542.78;5057161;28;20032;-76
2022/08/02 05:41:23;;;;;;;9.88;4.93;;;;;;;15.34;92.71;101547.50;5054734;28;20402;-76
2022/08/02 05:43:49;;;;;;;10.68;5.22;;;;;;;15.37;92.39;101554.19;5053762;28;20166;-76
2022/08/02 05:46:14;;;;;;;7.20;5.22;;;;;;;15.36;92.42;101550.75;5047804;28;20032;-76
2022/08/02 05:48:40;;;;;;;7.40;4.25;;;;;;;15.41;92.57;101552.88;5059980;28;20070;-76
2022/08/02 05:51:11;;;;;;;11.07;5.50;;;;;;;15.50;92.43;101545.78;5059489;28;20068;-76
2022/08/02 05:54:00;;;;;;;13.60;5.80;;;;;;;15.67;91.91;101544.75;5056228;28;20027;-76
2022/08/02 05:56:37;;;;;;;11.10;5.53;;;;;;;15.86;91.75;101553.16;5052632;28;20040;-76
2022/08/02 05:59:10;;;;;;;10.43;5.63;;;;;;;16.05;91.14;101554.50;5061177;28;20116;-76
2022/08/02 06:01:42;;;;;;;12.35;5.70;;;;;;;16.32;89.31;101543.53;5064714;28;20033;-76
2022/08/02 06:04:14;;;;;;;16.27;6.07;;;;;;;16.64;87.64;101556.50;5058982;28;20935;-76
2022/08/02 06:06:43;;;;;;;19.40;5.50;;;;;;;16.98;86.71;101553.44;5059326;28;20033;-76
2022/08/02 06:09:14;;;;;;;17.50;6.43;;;;;;;17.16;83.67;101550.47;5059314;28;20089;-76
2022/08/02 06:11:47;;;;;;;14.98;6.57;;;;;;;17.30;82.40;101552.25;5069527;28;20028;-76
2022/08/02 06:14:16;;;;;;;16.50;6.78;;;;;;;17.54;81.43;101552.09;5063598;28;21835;-76
2022/08/02 06:16:43;;;;;;;20.80;6.57;;;;;;;17.80;80.32;101554.22;5056654;28;20664;-75
2022/08/02 06:19:11;;;;;;;15.85;6.55;;;;;;;18.13;78.67;101549.34;5044628;28;20051;-76
2022/08/02 06:21:40;;;;;;;11.48;5.60;;;;;;;18.34;77.60;101547.72;5059768;28;20099;-76
2022/08/02 06:24:11;;;;;;;13.02;5.22;;;;;;;18.60;76.77;101544.50;5041858;28;20729;-76
2022/08/02 06:26:37;;;;;;;9.32;5.25;;;;;;;18.94;74.71;101545.56;5072385;28;20523;-76
2022/08/02 06:29:06;;;;;;;11.82;6.40;;;;;;;19.14;74.00;101541.22;5057725;28;20037;-76
2022/08/02 06:31:32;;;;;;;17.83;6.57;;;;;;;19.30;73.30;101537.44;5063058;28;20032;-76
2022/08/02 06:33:57;;;;;;;13.68;4.93;;;;;;;19.50;72.59;101529.63;5053572;28;20090;-76
2022/08/02 06:36:49;;;;;;;9.43;4.45;;;;;;;19.62;72.38;101530.66;5061802;28;20033;-75
2022/08/02 06:39:30;;;;;;;26.42;11.57;;;;;;;20.01;71.57;101526.53;5057377;28;20306;-76
2022/08/02 06:42:01;;;;;;;13.80;5.07;;;;;;;20.14;70.05;101524.94;5058846;28;20158;-75
2022/08/02 06:44:37;;;;;;;13.32;4.82;;;;;;;20.35;69.76;101521.28;5063181;28;20025;-76
2022/08/02 06:47:03;;;;;;;13.55;4.63;;;;;;;20.12;70.29;101519.88;5063778;28;20414;-76
2022/08/02 06:49:29;;;;;;;11.77;4.72;;;;;;;20.25;70.06;101523.50;5046174;28;20028;-76
2022/08/02 06:51:54;;;;;;;16.23;5.40;;;;;;;20.40;69.21;101526.75;5061932;28;20060;-76
2022/08/02 06:54:20;;;;;;;10.15;4.78;;;;;;;20.36;68.14;101526.34;5063611;28;20032;-75
2022/08/02 06:56:46;;;;;;;10.88;4.22;;;;;;;20.55;68.19;101531.78;5060258;28;20032;-76
2022/08/02 06:59:12;;;;;;;7.72;3.75;;;;;;;20.88;67.62;101536.22;5058048;28;20077;-76
2022/08/02 07:01:38;;;;;;;9.30;3.92;;;;;;;20.97;67.36;101527.88;5062525;28;20032;-76
2022/08/02 07:04:06;;;;;;;14.68;4.05;;;;;;;21.23;65.74;101528.81;5060445;28;20486;-75
2022/08/02 07:06:32;;;;;;;8.07;4.28;;;;;;;21.43;65.12;101536.63;5061666;28;20040;-76
2022/08/02 07:08:57;;;;;;;9.05;3.80;;;;;;;21.81;63.68;101527.91;5063664;28;20444;-76
2022/08/02 07:11:23;;;;;;;11.07;3.78;;;;;;;22.11;63.16;101533.41;5047871;28;20056;-76
2022/08/02 07:13:51;;;;;;;6.97;2.90;;;;;;;22.71;61.58;101524.97;5059918;28;20037;-76
2022/08/02 07:16:17;;;;;;;7.95;3.33;;;;;;;23.24;59.01;101525.41;5081632;28;20044;-76
2022/08/02 07:18:42;;;;;;;9.55;3.88;;;;;;;23.30;57.34;101532.44;5062104;28;20456;-76
2022/08/02 07:21:08;;;;;;;8.07;2.90;;;;;;;23.62;56.73;101524.28;5047685;28;20029;-76
2022/08/02 07:23:33;;;;;;;12.77;3.17;;;;;;;23.91;56.14;101517.38;5045425;28;20033;-76
2022/08/02 07:25:59;;;;;;;12.20;3.20;;;;;;;24.34;54.63;101512.81;5061283;28;20032;-77
2022/08/02 07:28:25;;;;;;;7.18;2.50;;;;;;;24.69;54.53;101507.50;5062224;28;20037;-76
2022/08/02 07:30:53;;;;;;;6.82;2.22;;;;;;;25.03;53.34;101510.31;5061901;28;20044;-76
2022/08/02 07:33:19;;;;;;;9.60;2.90;;;;;;;25.24;53.40;101522.97;5058917;28;20035;-76
2022/08/02 07:35:45;;;;;;;14.57;2.88;;;;;;;25.31;52.33;101524.66;5054734;28;20029;-75
2022/08/02 07:38:10;;;;;;;9.85;3.00;;;;;;;25.26;51.59;101517.44;5061678;28;20037;-76
2022/08/02 07:40:36;;;;;;;7.65;3.17;;;;;;;25.29;52.02;101508.97;5056694;28;20179;-75
2022/08/02 07:43:01;;;;;;;8.25;2.70;;;;;;;25.54;51.35;101513.97;5060336;28;20056;-76
2022/08/02 07:45:29;;;;;;;8.25;2.58;;;;;;;25.68;50.99;101514.44;5060183;28;20039;-76
2022/08/02 07:47:55;;;;;;;8.93;2.80;;;;;;;26.08;49.90;101510.06;5060173;28;20036;-76
2022/08/02 07:50:21;;;;;;;10.38;2.95;;;;;;;26.34;50.28;101506.72;5049468;28;20483;-76
2022/08/02 07:52:47;;;;;;;7.32;2.65;;;;;;;26.67;49.89;101502.38;5056983;28;20020;-77
2022/08/02 07:55:14;;;;;;;4.97;2.45;;;;;;;27.04;49.07;101507.09;5060446;28;20032;-76
2022/08/02 07:57:41;;;;;;;9.15;3.63;;;;;;;27.39;47.41;101497.91;5054862;28;20033;-76
2022/08/02 08:00:08;;;;;;;5.97;2.97;;;;;;;27.61;46.62;101503.13;5060602;28;20067;-76
2022/08/02 08:02:40;;;;;;;4.30;2.15;;;;;;;28.04;45.47;101496.03;5057721;28;20037;-76
2022/08/02 08:05:06;;;;;;;5.75;2.10;;;;;;;28.23;45.55;101498.28;5075139;28;20497;-77
2022/08/02 08:07:33;;;;;;;5.32;2.13;;;;;;;28.56;45.31;101489.16;5057265;28;20163;-74
2022/08/02 08:09:59;;;;;;;8.60;3.17;;;;;;;28.69;44.79;101488.69;5065742;28;20060;-74
2022/08/02 08:12:26;;;;;;;5.15;2.05;;;;;;;28.95;43.75;101477.28;5056671;28;20024;-74
2022/08/02 08:14:54;;;;;;;6.10;1.98;;;;;;;29.02;44.21;101483.97;5059883;28;20032;-74
2022/08/02 08:17:20;;;;;;;13.52;2.50;;;;;;;28.80;42.87;101476.19;5057813;28;20041;-73
2022/08/02 08:19:47;;;;;;;4.57;1.95;;;;;;;28.79;44.01;101482.56;5062656;28;20028;-74
2022/08/02 08:22:13;;;;;;;6.28;2.03;;;;;;;29.03;44.63;101484.78;5062117;28;20691;-74
2022/08/02 08:24:39;;;;;;;3.80;2.13;;;;;;;29.08;43.31;101474.91;5057149;28;20028;-74
2022/08/02 08:27:05;;;;;;;6.40;2.30;;;;;;;28.76;43.79;101474.28;5058106;28;20086;-74
2022/08/02 08:29:30;;;;;;;3.70;2.20;;;;;;;28.92;43.02;101476.75;5073310;28;20029;-74
2022/08/02 08:31:56;;;;;;;8.15;2.25;;;;;;;28.87;43.70;101466.03;5070934;28;20032;-74
2022/08/02 08:34:23;;;;;;;4.07;2.20;;;;;;;28.45;44.03;101471.47;5043182;28;20483;-74
2022/08/02 08:36:49;;;;;;;4.55;2.47;;;;;;;28.54;43.54;101473.41;5041611;28;20021;-73
2022/08/02 08:39:15;;;;;;;3.30;1.90;;;;;;;28.91;44.18;101474.31;5059013;28;20037;-74
2022/08/02 08:41:42;;;;;;;4.72;1.90;;;;;;;29.03;43.43;101471.44;5057677;28;20029;-74
2022/08/02 08:44:08;;;;;;;3.83;2.50;;;;;;;29.30;43.31;101482.69;5057206;28;20032;-74
2022/08/02 08:46:36;;;;;;;6.30;2.15;;;;;;;29.48;43.19;101475.25;5061461;28;20293;-74
2022/08/02 08:49:11;;;;;;;3.97;2.58;;;;;;;29.70;43.08;101477.63;5057660;28;20036;-74
2022/08/02 08:51:43;;;;;;;3.88;1.85;;;;;;;30.17;42.16;101470.38;5065151;28;20384;-74
2022/08/02 08:54:15;;;;;;;6.85;2.00;;;;;;;30.31;41.52;101475.94;5062591;28;20128;-74
2022/08/02 08:56:42;;;;;;;6.25;2.58;;;;;;;30.26;41.44;101466.06;5056054;28;20037;-74
2022/08/02 08:59:08;;;;;;;3.10;1.63;;;;;;;30.49;41.69;101464.66;5057232;28;20036;-74
2022/08/02 09:01:37;;;;;;;4.97;2.00;;;;;;;30.09;42.19;101467.19;5069039;28;20036;-74
2022/08/02 09:04:03;;;;;;;2.97;2.50;;;;;;;29.92;41.28;101466.69;5058182;28;20036;-73
2022/08/02 09:06:28;;;;;;;2.88;1.95;;;;;;;30.19;42.02;101465.53;5059395;28;20108;-74
2022/08/02 09:08:54;;;;;;;3.70;1.90;;;;;;;30.36;41.85;101458.03;5057589;28;20025;-74
2022/08/02 09:11:23;;;;;;;3.13;1.73;;;;;;;30.59;41.04;101453.09;5056205;28;20483;-74
2022/08/02 09:13:58;;;;;;;3.08;1.90;;;;;;;30.41;41.76;101460.69;5065248;28;20032;-74
2022/08/02 09:16:30;;;;;;;3.08;1.75;;;;;;;29.93;42.91;101448.78;5059274;28;20032;-74
2022/08/02 09:18:56;;;;;;;2.58;1.73;;;;;;;29.78;42.25;101449.59;5060963;28;20528;-74
2022/08/02 09:21:22;;;;;;;2.30;1.52;;;;;;;29.46;42.46;101464.00;5060647;28;20036;-74
2022/08/02 09:23:51;;;;;;;3.80;1.65;;;;;;;29.74;41.87;101457.34;5062120;28;20059;-72
2022/08/02 09:26:22;;;;;;;3.25;2.20;;;;;;;29.52;42.06;101457.63;5057863;28;20040;-74
2022/08/02 09:28:58;;;;;;;3.63;2.00;;;;;;;29.68;42.73;101461.06;5059131;28;20536;-73
2022/08/02 09:31:24;;;;;;;4.45;2.17;;;;;;;29.92;42.07;101456.00;5063423;28;20028;-73
2022/08/02 09:33:57;;;;;;;3.20;1.50;;;;;;;29.95;41.78;101451.97;5061554;28;20052;-74
2022/08/02 09:36:24;;;;;;;5.25;1.83;;;;;;;30.07;41.53;101455.16;5061997;28;20082;-73
2022/08/02 09:38:56;;;;;;;4.25;1.58;;;;;;;30.25;41.15;101457.25;5044842;28;20062;-73
2022/08/02 09:41:27;;;;;;;2.53;1.60;;;;;;;30.44;41.46;101444.09;5060001;28;20033;-73
2022/08/02 09:43:54;;;;;;;9.73;2.47;;;;;;;30.27;41.64;101447.06;5057109;28;20106;-74
2022/08/02 09:46:29;;;;;;;5.95;1.60;;;;;;;30.50;41.23;101450.22;5057842;28;20039;-72
2022/08/02 09:49:03;;;;;;;3.97;1.90;;;;;;;30.45;41.17;101451.03;5059531;28;20064;-73
2022/08/02 09:51:36;;;;;;;3.33;1.88;;;;;;;30.08;41.33;101446.88;5059134;28;20036;-73
2022/08/02 09:54:07;;;;;;;2.75;1.50;;;;;;;30.12;42.11;101454.34;5050823;28;20028;-73
2022/08/02 09:56:42;;;;;;;3.38;2.03;;;;;;;29.74;42.40;101452.00;5057520;28;20490;-74
2022/08/02 09:59:08;;;;;;;4.50;1.65;;;;;;;29.44;41.93;101450.13;5053453;28;20025;-74
2022/08/02 10:01:34;;;;;;;3.67;1.60;;;;;;;29.43;43.17;101460.00;5059040;28;20032;-74
2022/08/02 10:04:10;;;;;;;2.13;1.42;;;;;;;29.38;42.83;101451.19;5051587;28;20109;-73
2022/08/02 10:06:36;;;;;;;4.05;2.00;;;;;;;28.97;43.42;101446.59;5059772;28;20043;-74
2022/08/02 10:09:03;;;;;;;5.38;2.08;;;;;;;29.03;44.11;101448.22;5054490;28;20067;-73
2022/08/02 10:11:30;;;;;;;25.02;2.80;;;;;;;29.19;42.88;101449.03;5053807;28;20028;-74
2022/08/02 10:13:56;;;;;;;3.22;1.58;;;;;;;29.69;42.77;101442.09;5051163;28;20035;-73
2022/08/02 10:16:23;;;;;;;5.07;1.67;;;;;;;29.99;42.23;101443.16;5057991;28;20505;-74
2022/08/02 10:18:50;;;;;;;3.28;1.40;;;;;;;30.32;41.16;101434.75;5054440;28;20041;-73
2022/08/02 10:21:31;;;;;;;2.35;1.33;;;;;;;30.13;41.60;101440.69;5052122;28;20028;-74
2022/08/02 10:24:07;;;;;;;2.42;1.30;;;;;;;30.14;41.48;101433.47;5057085;28;20033;-74
2022/08/02 10:26:34;;;;;;;5.80;1.67;;;;;;;30.26;40.62;101450.03;5058486;28;20033;-73
2022/08/02 10:29:03;;;;;;;5.05;2.05;;;;;;;30.07;40.50;101439.91;5053816;28;20036;-73
2022/08/02 10:31:37;;;;;;;1.88;1.50;;;;;;;29.50;41.69;101441.84;5057071;28;20036;-73
2022/08/02 10:34:06;;;;;;;1.55;1.23;;;;;;;29.46;42.10;101430.13;5053928;28;20032;-74
2022/08/02 10:36:35;;;;;;;2.58;1.58;;;;;;;29.68;41.35;101424.47;5056087;28;20036;-74
2022/08/02 10:39:01;;;;;;;2.70;1.50;;;;;;;29.87;41.52;101432.75;5053075;28;20045;-74
2022/08/02 10:41:46;;;;;;;3.05;1.48;;;;;;;29.93;40.89;101436.19;5055979;28;20035;-74
2022/08/02 10:44:34;;;;;;;1.67;1.50;;;;;;;29.83;39.80;101426.34;5059437;28;20068;-75
2022/08/02 10:47:18;;;;;;;5.53;1.58;;;;;;;29.28;41.48;101425.31;5057879;28;20041;-74
2022/08/02 10:49:57;;;;;;;4.53;1.58;;;;;;;29.53;40.85;101424.47;5058683;28;20475;-75
2022/08/02 10:52:27;;;;;;;3.45;1.30;;;;;;;29.63;40.67;101412.97;5056285;28;20036;-76
2022/08/02 10:55:08;;;;;;;1.70;1.42;;;;;;;29.61;41.05;101421.28;5059624;28;20052;-76
2022/08/02 10:57:36;;;;;;;1.60;1.50;;;;;;;29.76;40.77;101414.31;5055957;28;20037;-75
2022/08/02 11:00:12;;;;;;;5.82;1.52;;;;;;;29.46;41.25;101413.25;5055351;28;20461;-74
2022/08/02 11:02:39;;;;;;;4.03;1.52;;;;;;;29.93;41.83;101416.69;5055352;28;20040;-75
2022/08/02 11:05:26;;;;;;;4.30;1.40;;;;;;;30.04;41.02;101413.72;5056091;28;20029;-74
2022/08/02 11:07:55;;;;;;;3.35;1.50;;;;;;;30.09;39.37;101415.59;5060281;28;20082;-75
2022/08/02 11:10:38;;;;;;;4.43;2.33;;;;;;;30.13;40.25;101423.88;5057195;28;20124;-75
2022/08/02 11:13:10;;;;;;;2.95;1.67;;;;;;;29.88;39.30;101414.84;5040545;28;20032;-74
2022/08/02 11:15:48;;;;;;;5.45;1.48;;;;;;;29.94;39.50;101411.09;5057801;28;20379;-76
2022/08/02 11:18:14;;;;;;;3.92;1.65;;;;;;;30.12;39.39;101415.06;5044126;28;20052;-75
2022/08/02 11:20:39;;;;;;;1.70;1.30;;;;;;;30.38;39.96;101407.72;5056579;28;20424;-75
2022/08/02 11:23:38;;;;;;;2.38;1.52;;;;;;;30.20;39.36;101405.66;5055973;28;20020;-75
2022/08/02 11:26:29;;;;;;;3.13;1.30;;;;;;;29.90;39.41;101410.03;5048728;28;20045;-75
2022/08/02 11:28:55;;;;;;;3.25;1.60;;;;;;;30.10;39.33;101406.47;5059105;28;20402;-75
2022/08/02 11:31:21;;;;;;;1.55;1.42;;;;;;;30.33;39.53;101398.94;5058498;28;20115;-75
2022/08/02 11:33:49;;;;;;;2.78;1.40;;;;;;;30.49;38.17;101410.38;5056219;28;20032;-76
2022/08/02 11:36:14;;;;;;;4.60;1.52;;;;;;;30.47;38.34;101402.63;5045030;28;20037;-76
2022/08/02 11:38:40;;;;;;;4.32;1.52;;;;;;;30.54;37.49;101405.00;5061494;28;20031;-74